sensor_id;sensor_type;location;lat;lon;timestamp;pressure;altitude;pressure_sealevel;temperature
17716;BMP280;50159;49.426;11.182;2022-11-20T00:01:25;97244.41;;;1.75
17716;BMP280;50159;49.426;11.182;2022-11-20T00:03:55;97232.34;;;1.77
17716;BMP280;50159;49.426;11.182;2022-11-20T00:06:23;97234.91;;;1.77
17716;BMP280;50159;49.426;11.182;2022-11-20T00:08:51;97239.13;;;1.78
17716;BMP280;50159;49.426;11.182;2022-11-20T00:11:22;97228.06;;;1.78
17716;BMP280;50159;49.426;11.182;2022-11-20T00:13:53;97230.69;;;1.76
17716;BMP280;50159;49.426;11.182;2022-11-20T00:16:24;97237.41;;;1.78
17716;BMP280;50159;49.426;11.182;2022-11-20T00:18:52;97234.91;;;1.77
17716;BMP280;50159;49.426;11.182;2022-11-20T00:21:25;97226.25;;;1.79
17716;BMP280;50159;49.426;11.182;2022-11-20T00:23:54;97233.94;;;1.79
17716;BMP280;50159;49.426;11.182;2022-11-20T00:26:24;97237.16;;;1.83
17716;BMP280;50159;49.426;11.182;2022-11-20T00:28:54;97232.03;;;1.83
17716;BMP280;50159;49.426;11.182;2022-11-20T00:31:22;97233.03;;;1.80
17716;BMP280;50159;49.426;11.182;2022-11-20T00:33:49;97227.22;;;1.77
17716;BMP280;50159;49.426;11.182;2022-11-20T00:36:22;97232.34;;;1.77
17716;BMP280;50159;49.426;11.182;2022-11-20T00:38:55;97227.91;;;1.80
17716;BMP280;50159;49.426;11.182;2022-11-20T00:41:23;97225.25;;;1.82
17716;BMP280;50159;49.426;11.182;2022-11-20T00:43:52;97237.31;;;1.80
17716;BMP280;50159;49.426;11.182;2022-11-20T00:46:23;97226.97;;;1.81
17716;BMP280;50159;49.426;11.182;2022-11-20T00:48:50;97235.41;;;1.83
17716;BMP280;50159;49.426;11.182;2022-11-20T00:51:20;97240.25;;;1.89
17716;BMP280;50159;49.426;11.182;2022-11-20T00:53:48;97239.41;;;1.89
17716;BMP280;50159;49.426;11.182;2022-11-20T00:56:18;97231.88;;;1.86
17716;BMP280;50159;49.426;11.182;2022-11-20T00:58:48;97233.69;;;1.84
17716;BMP280;50159;49.426;11.182;2022-11-20T01:01:23;97227.06;;;1.80
17716;BMP280;50159;49.426;11.182;2022-11-20T01:03:56;97231.13;;;1.84
17716;BMP280;50159;49.426;11.182;2022-11-20T01:06:30;97226.75;;;1.86
17716;BMP280;50159;49.426;11.182;2022-11-20T01:09:01;97215.66;;;1.85
17716;BMP280;50159;49.426;11.182;2022-11-20T01:11:32;97231.03;;;1.85
17716;BMP280;50159;49.426;11.182;2022-11-20T01:14:04;97230.28;;;1.83
17716;BMP280;50159;49.426;11.182;2022-11-20T01:16:38;97232.34;;;1.77
17716;BMP280;50159;49.426;11.182;2022-11-20T01:19:09;97238.44;;;1.75
17716;BMP280;50159;49.426;11.182;2022-11-20T01:21:45;97236.72;;;1.75
17716;BMP280;50159;49.426;11.182;2022-11-20T01:24:15;97244.41;;;1.75
17716;BMP280;50159;49.426;11.182;2022-11-20T01:26:44;97253.00;;;1.74
17716;BMP280;50159;49.426;11.182;2022-11-20T01:29:23;97245.91;;;1.79
17716;BMP280;50159;49.426;11.182;2022-11-20T01:31:51;97247.50;;;1.81
17716;BMP280;50159;49.426;11.182;2022-11-20T01:34:20;97238.16;;;1.80
17716;BMP280;50159;49.426;11.182;2022-11-20T01:36:51;97242.28;;;1.83
17716;BMP280;50159;49.426;11.182;2022-11-20T01:39:24;97231.38;;;1.79
17716;BMP280;50159;49.426;11.182;2022-11-20T01:41:53;97231.38;;;1.79
17716;BMP280;50159;49.426;11.182;2022-11-20T01:44:57;97218.47;;;1.81
17716;BMP280;50159;49.426;11.182;2022-11-20T01:47:37;97221.78;;;1.83
17716;BMP280;50159;49.426;11.182;2022-11-20T01:50:16;97224.03;;;1.89
17716;BMP280;50159;49.426;11.182;2022-11-20T01:52:52;97221.47;;;1.89
17716;BMP280;50159;49.426;11.182;2022-11-20T01:55:30;97220.56;;;1.90
17716;BMP280;50159;49.426;11.182;2022-11-20T01:57:58;97221.31;;;1.92
17716;BMP280;50159;49.426;11.182;2022-11-20T02:00:26;97218.66;;;1.93
17716;BMP280;50159;49.426;11.182;2022-11-20T02:03:00;97217.84;;;1.93
17716;BMP280;50159;49.426;11.182;2022-11-20T02:05:43;97225.28;;;1.97
17716;BMP280;50159;49.426;11.182;2022-11-20T02:08:12;97222.72;;;1.97
17716;BMP280;50159;49.426;11.182;2022-11-20T02:10:39;97212.53;;;1.96
17716;BMP280;50159;49.426;11.182;2022-11-20T02:13:06;97217.66;;;1.96
17716;BMP280;50159;49.426;11.182;2022-11-20T02:15:53;97215.84;;;1.98
17716;BMP280;50159;49.426;11.182;2022-11-20T02:18:21;97209.91;;;1.97
17716;BMP280;50159;49.426;11.182;2022-11-20T02:21:02;97211.47;;;2.00
17716;BMP280;50159;49.426;11.182;2022-11-20T02:23:39;97207.16;;;2.00
17716;BMP280;50159;49.426;11.182;2022-11-20T02:26:13;97209.72;;;2.00
17716;BMP280;50159;49.426;11.182;2022-11-20T02:28:41;97207.94;;;2.02
17716;BMP280;50159;49.426;11.182;2022-11-20T02:31:08;97207.84;;;2.03
17716;BMP280;50159;49.426;11.182;2022-11-20T02:33:34;97209.44;;;2.06
17716;BMP280;50159;49.426;11.182;2022-11-20T02:36:01;97217.88;;;2.08
17716;BMP280;50159;49.426;11.182;2022-11-20T02:38:28;97215.38;;;2.06
17716;BMP280;50159;49.426;11.182;2022-11-20T02:40:55;97208.44;;;2.08
17716;BMP280;50159;49.426;11.182;2022-11-20T02:43:22;97208.50;;;2.07
17716;BMP280;50159;49.426;11.182;2022-11-20T02:45:49;97206.69;;;2.09
17716;BMP280;50159;49.426;11.182;2022-11-20T02:48:16;97206.53;;;2.12
17716;BMP280;50159;49.426;11.182;2022-11-20T02:50:43;97211.44;;;2.16
17716;BMP280;50159;49.426;11.182;2022-11-20T02:53:09;97213.16;;;2.16
17716;BMP280;50159;49.426;11.182;2022-11-20T02:55:36;97203.13;;;2.11
17716;BMP280;50159;49.426;11.182;2022-11-20T02:58:03;97205.69;;;2.11
17716;BMP280;50159;49.426;11.182;2022-11-20T03:00:30;97208.13;;;2.14
17716;BMP280;50159;49.426;11.182;2022-11-20T03:02:57;97206.22;;;2.18
17716;BMP280;50159;49.426;11.182;2022-11-20T03:05:23;97215.66;;;2.17
17716;BMP280;50159;49.426;11.182;2022-11-20T03:07:50;97214.00;;;2.16
17716;BMP280;50159;49.426;11.182;2022-11-20T03:10:17;97206.31;;;2.16
17716;BMP280;50159;49.426;11.182;2022-11-20T03:12:44;97195.13;;;2.17
17716;BMP280;50159;49.426;11.182;2022-11-20T03:15:10;97196.78;;;2.18
17716;BMP280;50159;49.426;11.182;2022-11-20T03:17:37;97182.97;;;2.21
17716;BMP280;50159;49.426;11.182;2022-11-20T03:20:05;97188.19;;;2.19
17716;BMP280;50159;49.426;11.182;2022-11-20T03:22:32;97195.88;;;2.19
17716;BMP280;50159;49.426;11.182;2022-11-20T03:24:59;97195.78;;;2.21
17716;BMP280;50159;49.426;11.182;2022-11-20T03:27:25;97198.25;;;2.22
17716;BMP280;50159;49.426;11.182;2022-11-20T03:29:52;97199.00;;;2.24
17716;BMP280;50159;49.426;11.182;2022-11-20T03:32:19;97198.03;;;2.26
17716;BMP280;50159;49.426;11.182;2022-11-20T03:34:46;97196.31;;;2.27
17716;BMP280;50159;49.426;11.182;2022-11-20T03:37:12;97187.84;;;2.25
17716;BMP280;50159;49.426;11.182;2022-11-20T03:39:39;97181.13;;;2.22
17716;BMP280;50159;49.426;11.182;2022-11-20T03:42:06;97179.50;;;2.22
17716;BMP280;50159;49.426;11.182;2022-11-20T03:44:52;97175.34;;;2.19
17716;BMP280;50159;49.426;11.182;2022-11-20T03:47:19;97185.63;;;2.19
17716;BMP280;50159;49.426;11.182;2022-11-20T03:49:46;97194.22;;;2.18
17716;BMP280;50159;49.426;11.182;2022-11-20T03:52:12;97177.19;;;2.17
17716;BMP280;50159;49.426;11.182;2022-11-20T03:54:39;97185.69;;;2.18
17716;BMP280;50159;49.426;11.182;2022-11-20T03:57:06;97178.00;;;2.18
17716;BMP280;50159;49.426;11.182;2022-11-20T03:59:33;97182.22;;;2.19
17716;BMP280;50159;49.426;11.182;2022-11-20T04:01:59;97177.00;;;2.20
17716;BMP280;50159;49.426;11.182;2022-11-20T04:04:26;97177.00;;;2.20
17716;BMP280;50159;49.426;11.182;2022-11-20T04:06:53;97170.97;;;2.21
17716;BMP280;50159;49.426;11.182;2022-11-20T04:09:20;97171.06;;;2.20
17716;BMP280;50159;49.426;11.182;2022-11-20T04:11:47;97168.56;;;2.18
17716;BMP280;50159;49.426;11.182;2022-11-20T04:14:15;97181.22;;;2.21
17716;BMP280;50159;49.426;11.182;2022-11-20T04:16:43;97165.91;;;2.20
17716;BMP280;50159;49.426;11.182;2022-11-20T04:19:15;97173.53;;;2.21
17716;BMP280;50159;49.426;11.182;2022-11-20T04:21:44;97176.84;;;2.23
17716;BMP280;50159;49.426;11.182;2022-11-20T04:24:11;97176.75;;;2.24
17716;BMP280;50159;49.426;11.182;2022-11-20T04:26:38;97174.28;;;2.23
17716;BMP280;50159;49.426;11.182;2022-11-20T04:29:05;97176.84;;;2.23
17716;BMP280;50159;49.426;11.182;2022-11-20T04:31:34;97167.25;;;2.26
17716;BMP280;50159;49.426;11.182;2022-11-20T04:34:04;97169.88;;;2.25
17716;BMP280;50159;49.426;11.182;2022-11-20T04:36:32;97169.13;;;2.23
17716;BMP280;50159;49.426;11.182;2022-11-20T04:39:05;97170.97;;;2.21
17716;BMP280;50159;49.426;11.182;2022-11-20T04:41:35;97173.78;;;2.17
17716;BMP280;50159;49.426;11.182;2022-11-20T04:44:04;97158.63;;;2.12
17716;BMP280;50159;49.426;11.182;2022-11-20T04:46:38;97162.94;;;2.12
17716;BMP280;50159;49.426;11.182;2022-11-20T04:49:06;97162.09;;;2.11
17716;BMP280;50159;49.426;11.182;2022-11-20T04:51:34;97162.88;;;2.13
17716;BMP280;50159;49.426;11.182;2022-11-20T04:54:01;97161.19;;;2.12
17716;BMP280;50159;49.426;11.182;2022-11-20T04:56:28;97154.41;;;2.11
17716;BMP280;50159;49.426;11.182;2022-11-20T04:58:55;97154.50;;;2.10
17716;BMP280;50159;49.426;11.182;2022-11-20T05:01:24;97158.78;;;2.09
17716;BMP280;50159;49.426;11.182;2022-11-20T05:03:51;97155.50;;;2.07
17716;BMP280;50159;49.426;11.182;2022-11-20T05:06:20;97170.88;;;2.07
17716;BMP280;50159;49.426;11.182;2022-11-20T05:08:47;97163.91;;;2.09
17716;BMP280;50159;49.426;11.182;2022-11-20T05:11:19;97163.91;;;2.09
17716;BMP280;50159;49.426;11.182;2022-11-20T05:13:47;97167.22;;;2.11
17716;BMP280;50159;49.426;11.182;2022-11-20T05:16:17;97165.44;;;2.13
17716;BMP280;50159;49.426;11.182;2022-11-20T05:18:45;97153.50;;;2.12
17716;BMP280;50159;49.426;11.182;2022-11-20T05:21:12;97154.25;;;2.14
17716;BMP280;50159;49.426;11.182;2022-11-20T05:23:41;97168.56;;;2.18
17716;BMP280;50159;49.426;11.182;2022-11-20T05:26:13;97149.34;;;2.25
17716;BMP280;50159;49.426;11.182;2022-11-20T05:28:40;97159.56;;;2.26
17716;BMP280;50159;49.426;11.182;2022-11-20T05:31:10;97161.31;;;2.26
17716;BMP280;50159;49.426;11.182;2022-11-20T05:33:40;97157.91;;;2.25
17716;BMP280;50159;49.426;11.182;2022-11-20T05:36:08;61792.09;;;2.26
17716;BMP280;50159;49.426;11.182;2022-11-20T05:38:35;97163.78;;;2.27
17716;BMP280;50159;49.426;11.182;2022-11-20T05:41:07;97147.66;;;2.25
17716;BMP280;50159;49.426;11.182;2022-11-20T05:43:36;97145.91;;;2.26
17716;BMP280;50159;49.426;11.182;2022-11-20T05:46:05;97145.91;;;2.26
17716;BMP280;50159;49.426;11.182;2022-11-20T05:48:33;97147.56;;;2.27
17716;BMP280;50159;49.426;11.182;2022-11-20T05:51:03;97143.25;;;2.27
17716;BMP280;50159;49.426;11.182;2022-11-20T05:53:32;97142.25;;;2.30
17716;BMP280;50159;49.426;11.182;2022-11-20T05:56:15;97133.75;;;2.29
17716;BMP280;50159;49.426;11.182;2022-11-20T05:58:43;97139.53;;;2.33
17716;BMP280;50159;49.426;11.182;2022-11-20T06:01:18;97133.66;;;2.31
17716;BMP280;50159;49.426;11.182;2022-11-20T06:03:46;97142.25;;;2.30
17716;BMP280;50159;49.426;11.182;2022-11-20T06:06:15;97135.31;;;2.32
17716;BMP280;50159;49.426;11.182;2022-11-20T06:08:44;97145.56;;;2.32
17716;BMP280;50159;49.426;11.182;2022-11-20T06:11:12;97144.56;;;2.34
17716;BMP280;50159;49.426;11.182;2022-11-20T06:13:41;97147.03;;;2.36
17716;BMP280;50159;49.426;11.182;2022-11-20T06:16:10;97147.88;;;2.36
17716;BMP280;50159;49.426;11.182;2022-11-20T06:18:38;97139.44;;;2.34
17716;BMP280;50159;49.426;11.182;2022-11-20T06:21:08;97146.22;;;2.35
17716;BMP280;50159;49.426;11.182;2022-11-20T06:23:36;97141.00;;;2.37
17716;BMP280;50159;49.426;11.182;2022-11-20T06:26:08;97127.34;;;2.36
17716;BMP280;50159;49.426;11.182;2022-11-20T06:28:36;97142.75;;;2.36
17716;BMP280;50159;49.426;11.182;2022-11-20T06:31:04;97139.34;;;2.36
17716;BMP280;50159;49.426;11.182;2022-11-20T06:33:31;97140.16;;;2.36
17716;BMP280;50159;49.426;11.182;2022-11-20T06:36:00;97130.69;;;2.38
17716;BMP280;50159;49.426;11.182;2022-11-20T06:38:34;97133.97;;;2.40
17716;BMP280;50159;49.426;11.182;2022-11-20T06:41:03;97133.06;;;2.41
17716;BMP280;50159;49.426;11.182;2022-11-20T06:43:30;97128.69;;;2.43
17716;BMP280;50159;49.426;11.182;2022-11-20T06:45:59;97138.03;;;2.44
17716;BMP280;50159;49.426;11.182;2022-11-20T06:48:29;97147.19;;;2.48
17716;BMP280;50159;49.426;11.182;2022-11-20T06:50:57;97147.94;;;2.50
17716;BMP280;50159;49.426;11.182;2022-11-20T06:53:24;97150.34;;;2.53
17716;BMP280;50159;49.426;11.182;2022-11-20T06:55:52;97147.94;;;2.50
17716;BMP280;50159;49.426;11.182;2022-11-20T06:58:19;97134.47;;;2.46
17716;BMP280;50159;49.426;11.182;2022-11-20T07:00:46;97150.84;;;2.44
17716;BMP280;50159;49.426;11.182;2022-11-20T07:03:14;97159.38;;;2.45
17716;BMP280;50159;49.426;11.182;2022-11-20T07:05:40;97164.44;;;2.46
17716;BMP280;50159;49.426;11.182;2022-11-20T07:08:08;97163.41;;;2.48
17716;BMP280;50159;49.426;11.182;2022-11-20T07:10:35;97168.47;;;2.50
17716;BMP280;50159;49.426;11.182;2022-11-20T07:13:02;97168.47;;;2.50
17716;BMP280;50159;49.426;11.182;2022-11-20T07:15:29;97172.94;;;2.46
17716;BMP280;50159;49.426;11.182;2022-11-20T07:17:59;97174.59;;;2.47
17716;BMP280;50159;49.426;11.182;2022-11-20T07:20:26;97178.81;;;2.48
17716;BMP280;50159;49.426;11.182;2022-11-20T07:22:58;97173.78;;;2.47
17716;BMP280;50159;49.426;11.182;2022-11-20T07:25:26;97172.88;;;2.48
17716;BMP280;50159;49.426;11.182;2022-11-20T07:27:58;97164.44;;;2.46
17716;BMP280;50159;49.426;11.182;2022-11-20T07:30:27;97166.00;;;2.48
17716;BMP280;50159;49.426;11.182;2022-11-20T07:32:56;97166.81;;;2.49
17716;BMP280;50159;49.426;11.182;2022-11-20T07:35:24;97165.25;;;2.46
17716;BMP280;50159;49.426;11.182;2022-11-20T07:37:51;97168.56;;;2.48
17716;BMP280;50159;49.426;11.182;2022-11-20T07:40:18;97167.41;;;2.54
17716;BMP280;50159;49.426;11.182;2022-11-20T07:42:54;97167.88;;;2.60
17716;BMP280;50159;49.426;11.182;2022-11-20T07:45:23;97170.38;;;2.62
17716;BMP280;50159;49.426;11.182;2022-11-20T07:47:51;97163.44;;;2.64
17716;BMP280;50159;49.426;11.182;2022-11-20T07:50:19;97160.78;;;2.65
17716;BMP280;50159;49.426;11.182;2022-11-20T07:52:47;97169.22;;;2.67
17716;BMP280;50159;49.426;11.182;2022-11-20T07:55:14;97170.03;;;2.67
17716;BMP280;50159;49.426;11.182;2022-11-20T07:57:42;97170.97;;;2.67
17716;BMP280;50159;49.426;11.182;2022-11-20T08:00:10;97178.56;;;2.68
17716;BMP280;50159;49.426;11.182;2022-11-20T08:02:39;97176.84;;;2.68
17716;BMP280;50159;49.426;11.182;2022-11-20T08:05:07;97180.13;;;2.70
17716;BMP280;50159;49.426;11.182;2022-11-20T08:07:39;97173.84;;;2.76
17716;BMP280;50159;49.426;11.182;2022-11-20T08:10:10;97173.59;;;2.80
17716;BMP280;50159;49.426;11.182;2022-11-20T08:12:48;97172.31;;;2.87
17716;BMP280;50159;49.426;11.182;2022-11-20T08:15:34;97171.97;;;2.93
17716;BMP280;50159;49.426;11.182;2022-11-20T08:18:09;97167.41;;;2.98
17716;BMP280;50159;49.426;11.182;2022-11-20T08:20:57;97170.97;;;2.95
17716;BMP280;50159;49.426;11.182;2022-11-20T08:23:24;97180.41;;;2.95
17716;BMP280;50159;49.426;11.182;2022-11-20T08:25:51;97174.47;;;2.94
17716;BMP280;50159;49.426;11.182;2022-11-20T08:28:18;97170.25;;;2.93
17716;BMP280;50159;49.426;11.182;2022-11-20T08:30:48;97170.41;;;2.90
17716;BMP280;50159;49.426;11.182;2022-11-20T08:33:16;97178.13;;;2.90
17716;BMP280;50159;49.426;11.182;2022-11-20T08:35:44;97180.59;;;2.92
17716;BMP280;50159;49.426;11.182;2022-11-20T08:38:11;97175.38;;;2.93
17716;BMP280;50159;49.426;11.182;2022-11-20T08:40:37;97175.47;;;2.92
17716;BMP280;50159;49.426;11.182;2022-11-20T08:43:04;97166.03;;;2.92
17716;BMP280;50159;49.426;11.182;2022-11-20T08:45:31;97176.28;;;2.92
17716;BMP280;50159;49.426;11.182;2022-11-20T08:48:04;97177.03;;;2.94
17716;BMP280;50159;49.426;11.182;2022-11-20T08:50:31;97178.41;;;3.00
17716;BMP280;50159;49.426;11.182;2022-11-20T08:53:06;97174.09;;;3.00
17716;BMP280;50159;49.426;11.182;2022-11-20T08:55:33;97176.66;;;3.00
17716;BMP280;50159;49.426;11.182;2022-11-20T08:58:06;97177.44;;;3.02
17716;BMP280;50159;49.426;11.182;2022-11-20T09:00:33;97177.44;;;3.02
17716;BMP280;50159;49.426;11.182;2022-11-20T09:03:01;97172.94;;;3.06
17716;BMP280;50159;49.426;11.182;2022-11-20T09:05:28;97169.38;;;3.08
17716;BMP280;50159;49.426;11.182;2022-11-20T09:07:59;97176.16;;;3.09
17716;BMP280;50159;49.426;11.182;2022-11-20T09:10:27;97173.59;;;3.09
17716;BMP280;50159;49.426;11.182;2022-11-20T09:12:55;97171.03;;;3.09
17716;BMP280;50159;49.426;11.182;2022-11-20T09:15:23;97160.75;;;3.09
17716;BMP280;50159;49.426;11.182;2022-11-20T09:17:55;97173.59;;;3.09
17716;BMP280;50159;49.426;11.182;2022-11-20T09:20:22;97174.41;;;3.10
17716;BMP280;50159;49.426;11.182;2022-11-20T09:22:49;97166.63;;;3.11
17716;BMP280;50159;49.426;11.182;2022-11-20T09:25:16;97166.47;;;3.14
17716;BMP280;50159;49.426;11.182;2022-11-20T09:27:43;97157.66;;;3.18
17716;BMP280;50159;49.426;11.182;2022-11-20T09:30:14;97157.19;;;3.25
17716;BMP280;50159;49.426;11.182;2022-11-20T09:32:42;97161.91;;;3.33
17716;BMP280;50159;49.426;11.182;2022-11-20T09:35:09;97147.31;;;3.33
17716;BMP280;50159;49.426;11.182;2022-11-20T09:37:37;97142.81;;;3.36
17716;BMP280;50159;49.426;11.182;2022-11-20T09:40:05;97147.63;;;3.42
17716;BMP280;50159;49.426;11.182;2022-11-20T09:45:39;97148.72;;;3.52
17716;BMP280;50159;49.426;11.182;2022-11-20T09:54:09;97153.59;;;3.57
17716;BMP280;50159;49.426;11.182;2022-11-20T09:56:45;97150.84;;;3.59
17716;BMP280;50159;49.426;11.182;2022-11-20T09:59:40;97149.19;;;3.58
17716;BMP280;50159;49.426;11.182;2022-11-20T10:07:37;97152.50;;;3.60
17716;BMP280;50159;49.426;11.182;2022-11-20T10:10:15;97152.97;;;3.67
17716;BMP280;50159;49.426;11.182;2022-11-20T10:16:00;97140.84;;;3.69
17716;BMP280;50159;49.426;11.182;2022-11-20T10:22:08;97141.75;;;3.68
17716;BMP280;50159;49.426;11.182;2022-11-20T10:24:51;97141.84;;;3.66
17716;BMP280;50159;49.426;11.182;2022-11-20T10:27:46;97139.38;;;3.65
17716;BMP280;50159;49.426;11.182;2022-11-20T10:30:18;97141.03;;;3.66
17716;BMP280;50159;49.426;11.182;2022-11-20T10:32:52;97129.94;;;3.65
17716;BMP280;50159;49.426;11.182;2022-11-20T10:35:32;97135.22;;;3.62
17716;BMP280;50159;49.426;11.182;2022-11-20T10:38:09;97136.25;;;3.60
17716;BMP280;50159;49.426;11.182;2022-11-20T10:40:44;97129.44;;;3.59
17716;BMP280;50159;49.426;11.182;2022-11-20T10:43:32;97137.88;;;3.61
17716;BMP280;50159;49.426;11.182;2022-11-20T10:46:15;97126.63;;;3.63
17716;BMP280;50159;49.426;11.182;2022-11-20T10:48:45;97125.75;;;3.63
17716;BMP280;50159;49.426;11.182;2022-11-20T10:51:37;97120.81;;;3.60
17716;BMP280;50159;49.426;11.182;2022-11-20T10:54:23;97112.66;;;3.67
17716;BMP280;50159;49.426;11.182;2022-11-20T10:57:05;97111.44;;;3.73
17716;BMP280;50159;49.426;11.182;2022-11-20T11:00:05;97110.06;;;3.81
17716;BMP280;50159;49.426;11.182;2022-11-20T11:02:58;97110.59;;;3.86
17716;BMP280;50159;49.426;11.182;2022-11-20T11:05:51;97105.22;;;3.90
17716;BMP280;50159;49.426;11.182;2022-11-20T11:08:22;97101.53;;;3.94
17716;BMP280;50159;49.426;11.182;2022-11-20T11:10:57;97102.81;;;4.01
17716;BMP280;50159;49.426;11.182;2022-11-20T11:13:27;97102.31;;;4.08
17716;BMP280;50159;49.426;11.182;2022-11-20T11:15:55;97084.00;;;4.13
17716;BMP280;50159;49.426;11.182;2022-11-20T11:18:33;97086.22;;;4.19
17716;BMP280;50159;49.426;11.182;2022-11-20T11:21:04;97098.69;;;4.24
17716;BMP280;50159;49.426;11.182;2022-11-20T11:26:21;97083.66;;;4.45
17716;BMP280;50159;49.426;11.182;2022-11-20T11:29:04;97089.06;;;4.54
17716;BMP280;50159;49.426;11.182;2022-11-20T11:31:33;97087.94;;;4.58
17716;BMP280;50159;49.426;11.182;2022-11-20T11:34:16;97094.88;;;4.69
17716;BMP280;50159;49.426;11.182;2022-11-20T11:36:56;97200.81;;;4.77
17716;BMP280;50159;49.426;11.182;2022-11-20T11:39:26;97171.34;;;4.55
17716;BMP280;50159;49.426;11.182;2022-11-20T11:41:54;97120.66;;;4.30
17716;BMP280;50159;49.426;11.182;2022-11-20T11:44:25;97121.16;;;4.09
17716;BMP280;50159;49.426;11.182;2022-11-20T11:47:29;97126.84;;;4.00
17716;BMP280;50159;49.426;11.182;2022-11-20T11:56:02;97134.38;;;4.17
17716;BMP280;50159;49.426;11.182;2022-11-20T11:58:47;97148.41;;;4.25
17716;BMP280;50159;49.426;11.182;2022-11-20T12:01:38;97120.84;;;4.27
17716;BMP280;50159;49.426;11.182;2022-11-20T12:04:19;97125.25;;;4.25
17716;BMP280;50159;49.426;11.182;2022-11-20T12:07:00;97126.16;;;4.24
17716;BMP280;50159;49.426;11.182;2022-11-20T12:09:52;97116.69;;;4.24
17716;BMP280;50159;49.426;11.182;2022-11-20T12:12:28;97117.88;;;4.33
17716;BMP280;50159;49.426;11.182;2022-11-20T12:14:58;97109.50;;;4.43
17716;BMP280;50159;49.426;11.182;2022-11-20T12:17:24;97119.28;;;4.50
17716;BMP280;50159;49.426;11.182;2022-11-20T12:19:51;97122.06;;;4.47
17716;BMP280;50159;49.426;11.182;2022-11-20T12:25:22;97128.53;;;4.41
17716;BMP280;50159;49.426;11.182;2022-11-20T12:27:57;97124.78;;;4.32
17716;BMP280;50159;49.426;11.182;2022-11-20T12:30:33;97124.97;;;4.29
17716;BMP280;50159;49.426;11.182;2022-11-20T12:36:47;97127.19;;;4.22
17716;BMP280;50159;49.426;11.182;2022-11-20T12:39:42;97134.19;;;4.20
17716;BMP280;50159;49.426;11.182;2022-11-20T12:45:57;97121.78;;;4.26
17716;BMP280;50159;49.426;11.182;2022-11-20T12:51:43;97102.97;;;4.38
17716;BMP280;50159;49.426;11.182;2022-11-20T12:57:55;97098.06;;;4.47
17716;BMP280;50159;49.426;11.182;2022-11-20T13:00:24;97099.63;;;4.49
17716;BMP280;50159;49.426;11.182;2022-11-20T13:06:00;97089.72;;;4.44
17716;BMP280;50159;49.426;11.182;2022-11-20T13:08:47;97100.31;;;4.39
17716;BMP280;50159;49.426;11.182;2022-11-20T13:19:56;97094.63;;;4.34
17716;BMP280;50159;49.426;11.182;2022-11-20T13:22:42;97088.94;;;4.29
17716;BMP280;50159;49.426;11.182;2022-11-20T13:25:22;97091.63;;;4.28
17716;BMP280;50159;49.426;11.182;2022-11-20T13:27:50;97094.56;;;4.22
17716;BMP280;50159;49.426;11.182;2022-11-20T13:30:20;97096.50;;;4.19
17716;BMP280;50159;49.426;11.182;2022-11-20T13:35:32;97094.31;;;4.13
17716;BMP280;50159;49.426;11.182;2022-11-20T13:40:36;97101.50;;;4.08
17716;BMP280;50159;49.426;11.182;2022-11-20T13:46:04;97097.47;;;4.04
17716;BMP280;50159;49.426;11.182;2022-11-20T13:48:51;97088.00;;;4.04
17716;BMP280;50159;49.426;11.182;2022-11-20T13:51:34;97083.69;;;4.05
17716;BMP280;50159;49.426;11.182;2022-11-20T13:57:42;97089.94;;;4.01
17716;BMP280;50159;49.426;11.182;2022-11-20T14:00:24;97103.91;;;3.97
17716;BMP280;50159;49.426;11.182;2022-11-20T14:03:09;97097.81;;;3.98
17716;BMP280;50159;49.426;11.182;2022-11-20T14:06:04;97099.22;;;4.03
17716;BMP280;50159;49.426;11.182;2022-11-20T14:08:46;97086.97;;;4.07
17716;BMP280;50159;49.426;11.182;2022-11-20T14:11:31;97106.44;;;4.11
17716;BMP280;50159;49.426;11.182;2022-11-20T14:14:23;97115.81;;;4.12
17716;BMP280;50159;49.426;11.182;2022-11-20T14:16:53;97097.63;;;4.15
17716;BMP280;50159;49.426;11.182;2022-11-20T14:21:48;97101.03;;;4.15
17716;BMP280;50159;49.426;11.182;2022-11-20T14:24:20;97092.38;;;4.16
17716;BMP280;50159;49.426;11.182;2022-11-20T14:26:48;97095.88;;;4.15
17716;BMP280;50159;49.426;11.182;2022-11-20T14:29:21;97106.81;;;4.19
17716;BMP280;50159;49.426;11.182;2022-11-20T14:31:54;97098.56;;;4.14
17716;BMP280;50159;49.426;11.182;2022-11-20T14:34:32;97101.13;;;4.14
17716;BMP280;50159;49.426;11.182;2022-11-20T14:37:04;97107.16;;;4.13
17716;BMP280;50159;49.426;11.182;2022-11-20T14:39:40;97106.28;;;4.14
17716;BMP280;50159;49.426;11.182;2022-11-20T14:42:23;97093.41;;;4.14
17716;BMP280;50159;49.426;11.182;2022-11-20T14:44:54;97091.66;;;4.14
17716;BMP280;50159;49.426;11.182;2022-11-20T14:47:26;97083.94;;;4.14
17716;BMP280;50159;49.426;11.182;2022-11-20T14:49:55;97096.81;;;4.14
17716;BMP280;50159;49.426;11.182;2022-11-20T14:52:26;97092.38;;;4.16
17716;BMP280;50159;49.426;11.182;2022-11-20T14:54:58;97104.22;;;4.19
17716;BMP280;50159;49.426;11.182;2022-11-20T14:57:32;97100.75;;;4.20
17716;BMP280;50159;49.426;11.182;2022-11-20T15:00:19;97099.19;;;4.17
17716;BMP280;50159;49.426;11.182;2022-11-20T15:02:50;97097.63;;;4.15
17716;BMP280;50159;49.426;11.182;2022-11-20T15:05:24;97103.88;;;4.11
17716;BMP280;50159;49.426;11.182;2022-11-20T15:08:08;97091.94;;;4.10
17716;BMP280;50159;49.426;11.182;2022-11-20T15:10:35;97091.81;;;4.11
17716;BMP280;50159;49.426;11.182;2022-11-20T15:13:12;97099.38;;;4.14
17716;BMP280;50159;49.426;11.182;2022-11-20T15:15:49;97103.50;;;4.17
17716;BMP280;50159;49.426;11.182;2022-11-20T15:18:32;97095.88;;;4.15
17716;BMP280;50159;49.426;11.182;2022-11-20T15:21:11;97095.97;;;4.14
17716;BMP280;50159;49.426;11.182;2022-11-20T15:23:38;97114.81;;;4.14
17716;BMP280;50159;49.426;11.182;2022-11-20T15:26:06;97103.59;;;4.15
17716;BMP280;50159;49.426;11.182;2022-11-20T15:28:40;97104.59;;;4.13
17716;BMP280;50159;49.426;11.182;2022-11-20T15:31:15;97098.00;;;4.09
17716;BMP280;50159;49.426;11.182;2022-11-20T15:33:42;97097.28;;;4.07
17716;BMP280;50159;49.426;11.182;2022-11-20T15:36:09;97085.31;;;4.06
17716;BMP280;50159;49.426;11.182;2022-11-20T15:38:37;97082.03;;;4.04
17716;BMP280;50159;49.426;11.182;2022-11-20T15:41:04;97083.69;;;4.05
17716;BMP280;50159;49.426;11.182;2022-11-20T15:43:30;97086.97;;;4.07
17716;BMP280;50159;49.426;11.182;2022-11-20T15:46:09;97081.09;;;4.05
17716;BMP280;50159;49.426;11.182;2022-11-20T15:48:44;97085.63;;;4.02